Arickaree, Colorado
Current Conditions -  °F | °C
As of 6:55 AM on Friday 31 Oct 2014 (Local Time) from KLIC Reporting Station
Clear Clear  
Wind Chill: 17°   Ceiling: Unl
Heat Index: 23°   Visibility: 10mi
Dew Point: 21°   Wind: 5mph
Humidity: 92%   Direction: 140°SE
Pressure: 30.4"   Gusts: NA
Location:  39.6673°N, 103.47°W
Report Text: KLIC 311255Z AUTO 14004KT 10SM CLR M05/M06 A3040 RMK AO2 SLP311 T10501061
Loading
Personal Weather Stations






























Interactive Weather Map
Tropical Storm Tracking
New forecast layout! Learn more

10-Day Weather Forecast

Advertisements
Track Severe Weather on mobile